sensor_id;sensor_type;location;lat;lon;timestamp;P1;durP1;ratioP1;P2;durP2;ratioP2
42196;SDS011;27866;48.146;17.098;2022-11-15T00:01:23;55.58;;;27.67;;
42196;SDS011;27866;48.146;17.098;2022-11-15T00:05:53;59.20;;;29.08;;
42196;SDS011;27866;48.146;17.098;2022-11-15T00:10:23;57.50;;;28.45;;
42196;SDS011;27866;48.146;17.098;2022-11-15T00:14:53;67.05;;;31.92;;
42196;SDS011;27866;48.146;17.098;2022-11-15T00:19:23;65.15;;;31.40;;
42196;SDS011;27866;48.146;17.098;2022-11-15T00:23:52;63.05;;;29.15;;
42196;SDS011;27866;48.146;17.098;2022-11-15T00:28:22;62.08;;;31.00;;
42196;SDS011;27866;48.146;17.098;2022-11-15T00:32:53;62.75;;;29.00;;
42196;SDS011;27866;48.146;17.098;2022-11-15T00:37:23;54.60;;;28.30;;
42196;SDS011;27866;48.146;17.098;2022-11-15T00:41:53;54.83;;;29.45;;
42196;SDS011;27866;48.146;17.098;2022-11-15T00:46:22;60.75;;;29.58;;
42196;SDS011;27866;48.146;17.098;2022-11-15T00:50:52;55.65;;;28.50;;
42196;SDS011;27866;48.146;17.098;2022-11-15T00:55:21;52.83;;;28.27;;
42196;SDS011;27866;48.146;17.098;2022-11-15T00:59:51;57.03;;;29.38;;
42196;SDS011;27866;48.146;17.098;2022-11-15T01:04:21;51.17;;;28.17;;
42196;SDS011;27866;48.146;17.098;2022-11-15T01:08:50;50.67;;;28.83;;
42196;SDS011;27866;48.146;17.098;2022-11-15T01:13:20;57.08;;;30.63;;
42196;SDS011;27866;48.146;17.098;2022-11-15T01:17:50;52.20;;;27.90;;
42196;SDS011;27866;48.146;17.098;2022-11-15T01:22:20;58.60;;;29.10;;
42196;SDS011;27866;48.146;17.098;2022-11-15T01:26:50;51.35;;;29.23;;
42196;SDS011;27866;48.146;17.098;2022-11-15T01:31:20;62.17;;;30.20;;
42196;SDS011;27866;48.146;17.098;2022-11-15T01:35:50;57.05;;;30.48;;
42196;SDS011;27866;48.146;17.098;2022-11-15T01:40:20;58.58;;;28.23;;
42196;SDS011;27866;48.146;17.098;2022-11-15T01:44:50;56.42;;;29.48;;
42196;SDS011;27866;48.146;17.098;2022-11-15T01:49:22;54.92;;;30.05;;
42196;SDS011;27866;48.146;17.098;2022-11-15T01:53:54;60.05;;;29.10;;
42196;SDS011;27866;48.146;17.098;2022-11-15T01:58:28;58.38;;;29.70;;
42196;SDS011;27866;48.146;17.098;2022-11-15T02:02:57;57.28;;;28.52;;
42196;SDS011;27866;48.146;17.098;2022-11-15T02:07:28;52.95;;;28.27;;
42196;SDS011;27866;48.146;17.098;2022-11-15T02:12:00;50.10;;;27.88;;
42196;SDS011;27866;48.146;17.098;2022-11-15T02:21:28;54.73;;;28.13;;
42196;SDS011;27866;48.146;17.098;2022-11-15T02:26:31;51.45;;;28.42;;
42196;SDS011;27866;48.146;17.098;2022-11-15T02:31:25;54.72;;;28.88;;
42196;SDS011;27866;48.146;17.098;2022-11-15T02:36:02;55.25;;;28.63;;
42196;SDS011;27866;48.146;17.098;2022-11-15T02:40:59;52.88;;;28.90;;
42196;SDS011;27866;48.146;17.098;2022-11-15T02:45:37;53.35;;;29.20;;
42196;SDS011;27866;48.146;17.098;2022-11-15T02:50:14;54.03;;;28.90;;
42196;SDS011;27866;48.146;17.098;2022-11-15T02:54:57;50.28;;;27.92;;
42196;SDS011;27866;48.146;17.098;2022-11-15T03:13:57;52.30;;;28.67;;
42196;SDS011;27866;48.146;17.098;2022-11-15T03:18:33;60.47;;;30.10;;
42196;SDS011;27866;48.146;17.098;2022-11-15T03:23:08;62.42;;;31.08;;
42196;SDS011;27866;48.146;17.098;2022-11-15T03:27:41;59.58;;;32.50;;
42196;SDS011;27866;48.146;17.098;2022-11-15T03:32:16;59.00;;;32.25;;
42196;SDS011;27866;48.146;17.098;2022-11-15T03:36:52;69.28;;;34.90;;
42196;SDS011;27866;48.146;17.098;2022-11-15T03:41:23;66.40;;;33.40;;
42196;SDS011;27866;48.146;17.098;2022-11-15T03:46:11;60.63;;;32.63;;
42196;SDS011;27866;48.146;17.098;2022-11-15T03:50:45;59.67;;;32.38;;
42196;SDS011;27866;48.146;17.098;2022-11-15T03:55:17;65.85;;;33.88;;
42196;SDS011;27866;48.146;17.098;2022-11-15T03:59:48;67.80;;;34.70;;
42196;SDS011;27866;48.146;17.098;2022-11-15T04:04:21;70.55;;;36.15;;
42196;SDS011;27866;48.146;17.098;2022-11-15T04:08:51;65.00;;;34.75;;
42196;SDS011;27866;48.146;17.098;2022-11-15T04:13:20;65.43;;;34.78;;
42196;SDS011;27866;48.146;17.098;2022-11-15T04:17:51;68.95;;;34.40;;
42196;SDS011;27866;48.146;17.098;2022-11-15T04:22:23;61.45;;;32.70;;
42196;SDS011;27866;48.146;17.098;2022-11-15T04:27:12;69.15;;;35.90;;
42196;SDS011;27866;48.146;17.098;2022-11-15T04:31:43;64.38;;;35.92;;
42196;SDS011;27866;48.146;17.098;2022-11-15T04:36:13;60.20;;;33.88;;
42196;SDS011;27866;48.146;17.098;2022-11-15T04:41:01;66.28;;;34.95;;
42196;SDS011;27866;48.146;17.098;2022-11-15T04:45:32;62.83;;;35.03;;
42196;SDS011;27866;48.146;17.098;2022-11-15T04:50:02;68.53;;;36.70;;
42196;SDS011;27866;48.146;17.098;2022-11-15T04:54:32;63.65;;;35.55;;
42196;SDS011;27866;48.146;17.098;2022-11-15T04:59:02;65.80;;;35.92;;
42196;SDS011;27866;48.146;17.098;2022-11-15T05:03:32;63.83;;;34.90;;
42196;SDS011;27866;48.146;17.098;2022-11-15T05:08:20;63.13;;;34.33;;
42196;SDS011;27866;48.146;17.098;2022-11-15T05:12:50;63.30;;;34.65;;
42196;SDS011;27866;48.146;17.098;2022-11-15T05:17:19;64.10;;;35.00;;
42196;SDS011;27866;48.146;17.098;2022-11-15T05:21:49;67.57;;;35.00;;
42196;SDS011;27866;48.146;17.098;2022-11-15T05:26:18;60.95;;;34.03;;
42196;SDS011;27866;48.146;17.098;2022-11-15T05:30:48;62.17;;;33.60;;
42196;SDS011;27866;48.146;17.098;2022-11-15T05:35:19;61.08;;;33.53;;
42196;SDS011;27866;48.146;17.098;2022-11-15T05:40:07;59.80;;;33.70;;
42196;SDS011;27866;48.146;17.098;2022-11-15T05:44:38;65.65;;;34.83;;
42196;SDS011;27866;48.146;17.098;2022-11-15T05:49:12;60.85;;;34.03;;
42196;SDS011;27866;48.146;17.098;2022-11-15T05:53:45;64.32;;;33.72;;
42196;SDS011;27866;48.146;17.098;2022-11-15T05:58:15;56.72;;;31.15;;
42196;SDS011;27866;48.146;17.098;2022-11-15T06:02:46;59.35;;;31.88;;
42196;SDS011;27866;48.146;17.098;2022-11-15T06:07:15;53.15;;;29.85;;
42196;SDS011;27866;48.146;17.098;2022-11-15T06:11:45;53.97;;;29.85;;
42196;SDS011;27866;48.146;17.098;2022-11-15T06:16:15;53.13;;;29.88;;
42196;SDS011;27866;48.146;17.098;2022-11-15T06:20:45;50.28;;;29.15;;
42196;SDS011;27866;48.146;17.098;2022-11-15T06:25:15;46.63;;;28.00;;
42196;SDS011;27866;48.146;17.098;2022-11-15T06:29:44;49.92;;;28.30;;
42196;SDS011;27866;48.146;17.098;2022-11-15T06:34:13;51.88;;;27.95;;
42196;SDS011;27866;48.146;17.098;2022-11-15T06:38:44;50.78;;;29.42;;
42196;SDS011;27866;48.146;17.098;2022-11-15T06:43:14;46.38;;;27.95;;
42196;SDS011;27866;48.146;17.098;2022-11-15T06:47:44;45.38;;;26.90;;
42196;SDS011;27866;48.146;17.098;2022-11-15T06:52:16;47.33;;;26.02;;
42196;SDS011;27866;48.146;17.098;2022-11-15T06:56:50;50.35;;;27.08;;
42196;SDS011;27866;48.146;17.098;2022-11-15T07:01:19;39.92;;;24.30;;
42196;SDS011;27866;48.146;17.098;2022-11-15T07:05:56;39.28;;;23.92;;
42196;SDS011;27866;48.146;17.098;2022-11-15T07:10:28;42.42;;;24.08;;
42196;SDS011;27866;48.146;17.098;2022-11-15T07:14:58;38.70;;;23.17;;
42196;SDS011;27866;48.146;17.098;2022-11-15T07:19:28;35.75;;;22.58;;
42196;SDS011;27866;48.146;17.098;2022-11-15T07:23:57;37.88;;;22.70;;
42196;SDS011;27866;48.146;17.098;2022-11-15T07:28:27;38.35;;;22.88;;
42196;SDS011;27866;48.146;17.098;2022-11-15T07:32:58;39.42;;;22.60;;
42196;SDS011;27866;48.146;17.098;2022-11-15T07:37:29;36.00;;;22.23;;
42196;SDS011;27866;48.146;17.098;2022-11-15T07:41:59;34.42;;;21.17;;
42196;SDS011;27866;48.146;17.098;2022-11-15T07:46:48;36.08;;;21.17;;
42196;SDS011;27866;48.146;17.098;2022-11-15T07:51:18;31.95;;;20.23;;
42196;SDS011;27866;48.146;17.098;2022-11-15T07:55:48;34.67;;;20.25;;
42196;SDS011;27866;48.146;17.098;2022-11-15T08:00:18;40.05;;;22.40;;
42196;SDS011;27866;48.146;17.098;2022-11-15T08:04:48;34.85;;;20.98;;
42196;SDS011;27866;48.146;17.098;2022-11-15T08:09:18;37.28;;;22.15;;
42196;SDS011;27866;48.146;17.098;2022-11-15T08:13:47;38.05;;;20.55;;
42196;SDS011;27866;48.146;17.098;2022-11-15T08:18:17;36.10;;;21.80;;
42196;SDS011;27866;48.146;17.098;2022-11-15T08:22:47;39.42;;;21.85;;
42196;SDS011;27866;48.146;17.098;2022-11-15T08:27:16;41.97;;;22.30;;
42196;SDS011;27866;48.146;17.098;2022-11-15T08:31:46;39.05;;;21.63;;
42196;SDS011;27866;48.146;17.098;2022-11-15T08:36:16;35.80;;;21.75;;
42196;SDS011;27866;48.146;17.098;2022-11-15T08:40:46;35.97;;;21.35;;
42196;SDS011;27866;48.146;17.098;2022-11-15T08:45:16;37.92;;;22.60;;
42196;SDS011;27866;48.146;17.098;2022-11-15T08:49:46;36.30;;;21.95;;
42196;SDS011;27866;48.146;17.098;2022-11-15T08:54:16;35.78;;;22.00;;
42196;SDS011;27866;48.146;17.098;2022-11-15T08:58:47;38.28;;;21.77;;
42196;SDS011;27866;48.146;17.098;2022-11-15T09:03:16;37.35;;;21.48;;
42196;SDS011;27866;48.146;17.098;2022-11-15T09:07:46;38.05;;;22.27;;
42196;SDS011;27866;48.146;17.098;2022-11-15T09:12:16;39.75;;;22.38;;
42196;SDS011;27866;48.146;17.098;2022-11-15T09:16:45;33.40;;;21.48;;
42196;SDS011;27866;48.146;17.098;2022-11-15T09:21:15;38.47;;;21.25;;
42196;SDS011;27866;48.146;17.098;2022-11-15T09:25:45;38.67;;;22.20;;
42196;SDS011;27866;48.146;17.098;2022-11-15T09:30:14;43.75;;;22.63;;
42196;SDS011;27866;48.146;17.098;2022-11-15T09:34:44;41.13;;;21.48;;
42196;SDS011;27866;48.146;17.098;2022-11-15T09:39:14;38.95;;;22.35;;
42196;SDS011;27866;48.146;17.098;2022-11-15T09:48:51;40.45;;;22.15;;
42196;SDS011;27866;48.146;17.098;2022-11-15T09:58:23;41.97;;;22.40;;
42196;SDS011;27866;48.146;17.098;2022-11-15T10:11:32;35.33;;;19.98;;
42196;SDS011;27866;48.146;17.098;2022-11-15T10:15:46;36.17;;;22.35;;
42196;SDS011;27866;48.146;17.098;2022-11-15T10:20:05;39.63;;;22.50;;
42196;SDS011;27866;48.146;17.098;2022-11-15T10:24:34;34.75;;;21.25;;
42196;SDS011;27866;48.146;17.098;2022-11-15T10:28:51;37.60;;;22.67;;
42196;SDS011;27866;48.146;17.098;2022-11-15T10:37:48;33.40;;;21.33;;
42196;SDS011;27866;48.146;17.098;2022-11-15T10:42:25;36.33;;;21.92;;
42196;SDS011;27866;48.146;17.098;2022-11-15T10:46:39;38.10;;;23.42;;
42196;SDS011;27866;48.146;17.098;2022-11-15T10:50:53;37.30;;;23.33;;
42196;SDS011;27866;48.146;17.098;2022-11-15T10:55:26;41.33;;;24.35;;
42196;SDS011;27866;48.146;17.098;2022-11-15T10:59:42;46.95;;;24.45;;
42196;SDS011;27866;48.146;17.098;2022-11-15T11:04:05;45.28;;;25.05;;
42196;SDS011;27866;48.146;17.098;2022-11-15T11:08:23;47.15;;;26.35;;
42196;SDS011;27866;48.146;17.098;2022-11-15T11:12:34;46.20;;;26.60;;
42196;SDS011;27866;48.146;17.098;2022-11-15T11:16:48;45.47;;;26.60;;
42196;SDS011;27866;48.146;17.098;2022-11-15T11:21:26;45.53;;;27.45;;
42196;SDS011;27866;48.146;17.098;2022-11-15T11:40:24;41.00;;;26.45;;
42196;SDS011;27866;48.146;17.098;2022-11-15T11:54:22;46.83;;;27.58;;
42196;SDS011;27866;48.146;17.098;2022-11-15T11:58:40;45.88;;;26.20;;
42196;SDS011;27866;48.146;17.098;2022-11-15T12:08:01;53.25;;;29.60;;
42196;SDS011;27866;48.146;17.098;2022-11-15T12:12:49;52.83;;;29.73;;
42196;SDS011;27866;48.146;17.098;2022-11-15T12:17:00;52.33;;;29.42;;
42196;SDS011;27866;48.146;17.098;2022-11-15T12:30:20;50.55;;;28.10;;
42196;SDS011;27866;48.146;17.098;2022-11-15T12:34:40;50.15;;;28.45;;
42196;SDS011;27866;48.146;17.098;2022-11-15T12:38:57;52.10;;;28.27;;
42196;SDS011;27866;48.146;17.098;2022-11-15T12:47:25;46.50;;;27.65;;
42196;SDS011;27866;48.146;17.098;2022-11-15T13:04:31;47.30;;;26.95;;
42196;SDS011;27866;48.146;17.098;2022-11-15T13:08:43;54.10;;;29.63;;
42196;SDS011;27866;48.146;17.098;2022-11-15T13:13:02;47.42;;;27.95;;
42196;SDS011;27866;48.146;17.098;2022-11-15T13:21:47;49.33;;;29.05;;
42196;SDS011;27866;48.146;17.098;2022-11-15T13:26:18;53.90;;;29.75;;
42196;SDS011;27866;48.146;17.098;2022-11-15T13:30:31;51.33;;;29.40;;
42196;SDS011;27866;48.146;17.098;2022-11-15T13:34:43;54.55;;;29.17;;
42196;SDS011;27866;48.146;17.098;2022-11-15T13:39:00;49.25;;;28.73;;
42196;SDS011;27866;48.146;17.098;2022-11-15T13:47:38;45.88;;;29.02;;
42196;SDS011;27866;48.146;17.098;2022-11-15T13:51:50;49.42;;;28.52;;
42196;SDS011;27866;48.146;17.098;2022-11-15T13:56:05;50.35;;;27.88;;
42196;SDS011;27866;48.146;17.098;2022-11-15T14:04:56;53.53;;;28.98;;
42196;SDS011;27866;48.146;17.098;2022-11-15T14:09:36;57.70;;;31.00;;
42196;SDS011;27866;48.146;17.098;2022-11-15T14:18:39;56.67;;;31.05;;
42196;SDS011;27866;48.146;17.098;2022-11-15T14:31:33;48.38;;;27.17;;
42196;SDS011;27866;48.146;17.098;2022-11-15T14:35:44;47.20;;;28.58;;
42196;SDS011;27866;48.146;17.098;2022-11-15T14:39:55;48.40;;;28.38;;
42196;SDS011;27866;48.146;17.098;2022-11-15T14:44:09;49.80;;;28.05;;
42196;SDS011;27866;48.146;17.098;2022-11-15T14:48:22;45.88;;;27.58;;
42196;SDS011;27866;48.146;17.098;2022-11-15T14:52:33;47.08;;;28.10;;
42196;SDS011;27866;48.146;17.098;2022-11-15T14:56:45;48.20;;;27.45;;
42196;SDS011;27866;48.146;17.098;2022-11-15T15:00:56;44.72;;;26.67;;
42196;SDS011;27866;48.146;17.098;2022-11-15T15:05:28;44.85;;;25.25;;
42196;SDS011;27866;48.146;17.098;2022-11-15T15:09:46;42.80;;;26.05;;
42196;SDS011;27866;48.146;17.098;2022-11-15T15:13:57;44.50;;;26.67;;
42196;SDS011;27866;48.146;17.098;2022-11-15T15:18:11;42.35;;;25.15;;
42196;SDS011;27866;48.146;17.098;2022-11-15T15:22:23;48.63;;;27.98;;
42196;SDS011;27866;48.146;17.098;2022-11-15T15:26:38;47.58;;;28.77;;
42196;SDS011;27866;48.146;17.098;2022-11-15T15:30:50;45.90;;;27.52;;
42196;SDS011;27866;48.146;17.098;2022-11-15T15:35:03;48.90;;;27.08;;
42196;SDS011;27866;48.146;17.098;2022-11-15T15:39:14;40.85;;;24.95;;
42196;SDS011;27866;48.146;17.098;2022-11-15T15:43:25;44.08;;;25.02;;
42196;SDS011;27866;48.146;17.098;2022-11-15T15:47:37;41.10;;;24.67;;
42196;SDS011;27866;48.146;17.098;2022-11-15T15:51:48;42.00;;;25.73;;
42196;SDS011;27866;48.146;17.098;2022-11-15T15:56:00;39.08;;;24.15;;
42196;SDS011;27866;48.146;17.098;2022-11-15T16:00:12;44.03;;;25.75;;
42196;SDS011;27866;48.146;17.098;2022-11-15T16:04:24;41.83;;;24.25;;
42196;SDS011;27866;48.146;17.098;2022-11-15T16:08:36;47.97;;;27.13;;
42196;SDS011;27866;48.146;17.098;2022-11-15T16:12:47;47.65;;;27.10;;
42196;SDS011;27866;48.146;17.098;2022-11-15T16:16:59;48.42;;;28.33;;
42196;SDS011;27866;48.146;17.098;2022-11-15T16:21:10;60.88;;;31.27;;
42196;SDS011;27866;48.146;17.098;2022-11-15T16:25:21;55.72;;;30.95;;
42196;SDS011;27866;48.146;17.098;2022-11-15T16:29:32;55.30;;;30.63;;
42196;SDS011;27866;48.146;17.098;2022-11-15T16:33:44;60.47;;;32.40;;
42196;SDS011;27866;48.146;17.098;2022-11-15T16:37:55;59.45;;;32.85;;
42196;SDS011;27866;48.146;17.098;2022-11-15T16:42:07;67.88;;;35.00;;
42196;SDS011;27866;48.146;17.098;2022-11-15T16:46:25;58.85;;;32.85;;
42196;SDS011;27866;48.146;17.098;2022-11-15T16:50:37;59.28;;;34.60;;
42196;SDS011;27866;48.146;17.098;2022-11-15T16:54:50;65.37;;;34.73;;
42196;SDS011;27866;48.146;17.098;2022-11-15T16:59:01;75.05;;;38.15;;
42196;SDS011;27866;48.146;17.098;2022-11-15T17:03:13;80.30;;;40.08;;
42196;SDS011;27866;48.146;17.098;2022-11-15T17:07:24;87.57;;;43.97;;
42196;SDS011;27866;48.146;17.098;2022-11-15T17:11:35;92.45;;;44.22;;
42196;SDS011;27866;48.146;17.098;2022-11-15T17:15:46;92.60;;;44.60;;
42196;SDS011;27866;48.146;17.098;2022-11-15T17:19:57;93.72;;;43.50;;
42196;SDS011;27866;48.146;17.098;2022-11-15T17:24:09;97.35;;;45.90;;
42196;SDS011;27866;48.146;17.098;2022-11-15T17:28:20;95.78;;;46.47;;
42196;SDS011;27866;48.146;17.098;2022-11-15T17:32:31;89.65;;;43.65;;
42196;SDS011;27866;48.146;17.098;2022-11-15T17:36:47;87.10;;;43.22;;
42196;SDS011;27866;48.146;17.098;2022-11-15T17:41:03;85.47;;;40.92;;
42196;SDS011;27866;48.146;17.098;2022-11-15T17:45:21;88.70;;;43.30;;
42196;SDS011;27866;48.146;17.098;2022-11-15T17:49:32;89.28;;;42.55;;
42196;SDS011;27866;48.146;17.098;2022-11-15T17:53:48;91.85;;;42.08;;
42196;SDS011;27866;48.146;17.098;2022-11-15T17:58:00;79.13;;;40.20;;
42196;SDS011;27866;48.146;17.098;2022-11-15T18:02:11;78.03;;;40.83;;
42196;SDS011;27866;48.146;17.098;2022-11-15T18:06:23;79.95;;;37.40;;
42196;SDS011;27866;48.146;17.098;2022-11-15T18:10:34;79.15;;;39.38;;
42196;SDS011;27866;48.146;17.098;2022-11-15T18:14:47;85.97;;;39.03;;
42196;SDS011;27866;48.146;17.098;2022-11-15T18:18:58;83.55;;;36.88;;
42196;SDS011;27866;48.146;17.098;2022-11-15T18:23:10;80.38;;;38.10;;
42196;SDS011;27866;48.146;17.098;2022-11-15T18:27:21;88.03;;;41.35;;
42196;SDS011;27866;48.146;17.098;2022-11-15T18:31:32;87.75;;;43.17;;
42196;SDS011;27866;48.146;17.098;2022-11-15T18:35:43;91.07;;;41.88;;
42196;SDS011;27866;48.146;17.098;2022-11-15T18:39:54;90.57;;;39.88;;
42196;SDS011;27866;48.146;17.098;2022-11-15T18:44:06;85.40;;;40.53;;
42196;SDS011;27866;48.146;17.098;2022-11-15T18:48:18;83.05;;;38.97;;
42196;SDS011;27866;48.146;17.098;2022-11-15T18:52:29;72.70;;;36.97;;
42196;SDS011;27866;48.146;17.098;2022-11-15T18:56:40;70.40;;;33.85;;
42196;SDS011;27866;48.146;17.098;2022-11-15T19:00:58;72.63;;;34.55;;
42196;SDS011;27866;48.146;17.098;2022-11-15T19:05:16;68.38;;;34.60;;
42196;SDS011;27866;48.146;17.098;2022-11-15T19:09:30;74.30;;;35.50;;
42196;SDS011;27866;48.146;17.098;2022-11-15T19:13:43;70.20;;;35.45;;
42196;SDS011;27866;48.146;17.098;2022-11-15T19:17:55;70.25;;;35.80;;
42196;SDS011;27866;48.146;17.098;2022-11-15T19:22:06;68.88;;;32.83;;
42196;SDS011;27866;48.146;17.098;2022-11-15T19:26:17;70.65;;;33.83;;
42196;SDS011;27866;48.146;17.098;2022-11-15T19:30:30;69.65;;;34.00;;
42196;SDS011;27866;48.146;17.098;2022-11-15T19:34:41;73.93;;;35.22;;
42196;SDS011;27866;48.146;17.098;2022-11-15T19:38:53;80.60;;;36.17;;
42196;SDS011;27866;48.146;17.098;2022-11-15T19:43:05;71.00;;;33.78;;
42196;SDS011;27866;48.146;17.098;2022-11-15T19:47:16;77.13;;;35.33;;
42196;SDS011;27866;48.146;17.098;2022-11-15T19:51:28;78.32;;;36.30;;
42196;SDS011;27866;48.146;17.098;2022-11-15T19:55:41;77.00;;;34.25;;
42196;SDS011;27866;48.146;17.098;2022-11-15T19:59:52;72.65;;;33.38;;
42196;SDS011;27866;48.146;17.098;2022-11-15T20:04:03;74.82;;;32.78;;
42196;SDS011;27866;48.146;17.098;2022-11-15T20:08:16;69.55;;;32.45;;
42196;SDS011;27866;48.146;17.098;2022-11-15T20:12:28;67.63;;;31.30;;
42196;SDS011;27866;48.146;17.098;2022-11-15T20:16:39;65.95;;;32.97;;
42196;SDS011;27866;48.146;17.098;2022-11-15T20:20:50;64.25;;;31.75;;
42196;SDS011;27866;48.146;17.098;2022-11-15T20:25:02;62.92;;;30.27;;
42196;SDS011;27866;48.146;17.098;2022-11-15T20:29:13;67.90;;;28.88;;
42196;SDS011;27866;48.146;17.098;2022-11-15T20:33:25;64.82;;;30.50;;
42196;SDS011;27866;48.146;17.098;2022-11-15T20:37:37;64.40;;;28.83;;
42196;SDS011;27866;48.146;17.098;2022-11-15T20:41:48;58.75;;;29.65;;
42196;SDS011;27866;48.146;17.098;2022-11-15T20:45:59;62.55;;;30.25;;
42196;SDS011;27866;48.146;17.098;2022-11-15T20:50:10;57.80;;;29.38;;
42196;SDS011;27866;48.146;17.098;2022-11-15T20:54:21;54.65;;;27.08;;
42196;SDS011;27866;48.146;17.098;2022-11-15T20:58:33;59.45;;;27.10;;
42196;SDS011;27866;48.146;17.098;2022-11-15T21:02:46;64.32;;;29.35;;
42196;SDS011;27866;48.146;17.098;2022-11-15T21:06:57;60.08;;;27.63;;
42196;SDS011;27866;48.146;17.098;2022-11-15T21:11:08;63.70;;;28.33;;
42196;SDS011;27866;48.146;17.098;2022-11-15T21:15:38;59.28;;;27.52;;
42196;SDS011;27866;48.146;17.098;2022-11-15T21:19:49;57.13;;;27.73;;
42196;SDS011;27866;48.146;17.098;2022-11-15T21:24:02;57.58;;;27.77;;
42196;SDS011;27866;48.146;17.098;2022-11-15T21:32:27;59.22;;;27.17;;
42196;SDS011;27866;48.146;17.098;2022-11-15T21:36:39;60.20;;;28.08;;
42196;SDS011;27866;48.146;17.098;2022-11-15T21:40:50;56.50;;;27.05;;
42196;SDS011;27866;48.146;17.098;2022-11-15T21:45:04;70.50;;;29.42;;
42196;SDS011;27866;48.146;17.098;2022-11-15T21:49:16;75.25;;;32.88;;
42196;SDS011;27866;48.146;17.098;2022-11-15T21:53:27;73.07;;;34.78;;
42196;SDS011;27866;48.146;17.098;2022-11-15T21:57:40;87.70;;;34.25;;
42196;SDS011;27866;48.146;17.098;2022-11-15T22:01:51;71.82;;;33.83;;
42196;SDS011;27866;48.146;17.098;2022-11-15T22:06:21;85.53;;;36.75;;
42196;SDS011;27866;48.146;17.098;2022-11-15T22:10:33;93.15;;;39.58;;
42196;SDS011;27866;48.146;17.098;2022-11-15T22:14:46;87.20;;;39.53;;
42196;SDS011;27866;48.146;17.098;2022-11-15T22:18:58;88.43;;;41.97;;
42196;SDS011;27866;48.146;17.098;2022-11-15T22:23:09;92.00;;;41.80;;
42196;SDS011;27866;48.146;17.098;2022-11-15T22:27:20;109.18;;;43.92;;
42196;SDS011;27866;48.146;17.098;2022-11-15T22:31:32;102.80;;;41.45;;
42196;SDS011;27866;48.146;17.098;2022-11-15T22:35:44;100.03;;;41.85;;
42196;SDS011;27866;48.146;17.098;2022-11-15T22:39:56;90.82;;;40.08;;
42196;SDS011;27866;48.146;17.098;2022-11-15T22:44:07;103.72;;;42.45;;
42196;SDS011;27866;48.146;17.098;2022-11-15T22:48:22;105.88;;;41.90;;
42196;SDS011;27866;48.146;17.098;2022-11-15T22:52:38;105.65;;;41.28;;
42196;SDS011;27866;48.146;17.098;2022-11-15T22:56:50;104.63;;;41.55;;
42196;SDS011;27866;48.146;17.098;2022-11-15T23:01:03;110.18;;;42.25;;
42196;SDS011;27866;48.146;17.098;2022-11-15T23:05:15;109.38;;;41.92;;
42196;SDS011;27866;48.146;17.098;2022-11-15T23:09:28;112.82;;;41.55;;
42196;SDS011;27866;48.146;17.098;2022-11-15T23:13:39;107.10;;;41.08;;
42196;SDS011;27866;48.146;17.098;2022-11-15T23:17:50;114.15;;;39.92;;
42196;SDS011;27866;48.146;17.098;2022-11-15T23:22:01;111.80;;;39.53;;
42196;SDS011;27866;48.146;17.098;2022-11-15T23:26:31;100.78;;;37.47;;
42196;SDS011;27866;48.146;17.098;2022-11-15T23:30:42;101.20;;;39.67;;
42196;SDS011;27866;48.146;17.098;2022-11-15T23:35:12;92.88;;;36.03;;
42196;SDS011;27866;48.146;17.098;2022-11-15T23:39:24;94.22;;;36.28;;
42196;SDS011;27866;48.146;17.098;2022-11-15T23:43:35;96.05;;;35.88;;
42196;SDS011;27866;48.146;17.098;2022-11-15T23:47:46;87.85;;;34.83;;
42196;SDS011;27866;48.146;17.098;2022-11-15T23:51:57;95.78;;;36.92;;
42196;SDS011;27866;48.146;17.098;2022-11-15T23:56:09;91.82;;;35.28;;
